createdAt,value
2022-09-26T00:00:31.623Z,32.60
2022-09-26T00:03:38.042Z,32.67
2022-09-26T00:06:17.610Z,31.40
2022-09-26T00:09:05.020Z,32.15
2022-09-26T00:11:47.065Z,39.67
2022-09-26T00:14:43.050Z,32.42
2022-09-26T00:17:30.061Z,33.50
2022-09-26T00:20:11.153Z,27.92
2022-09-26T00:22:52.054Z,34.50
2022-09-26T00:25:32.118Z,32.67
2022-09-26T00:28:13.065Z,36.75
2022-09-26T00:30:53.223Z,31.17
2022-09-26T00:33:34.047Z,31.42
2022-09-26T00:36:15.049Z,32.35
2022-09-26T00:38:49.137Z,29.90
2022-09-26T00:41:36.044Z,32.08
2022-09-26T00:44:10.120Z,32.78
2022-09-26T00:46:57.046Z,35.00
2022-09-26T00:49:31.307Z,34.67
2022-09-26T00:52:28.055Z,36.28
2022-09-26T00:55:11.050Z,25.75
2022-09-26T00:58:11.038Z,26.17
2022-09-26T01:00:59.139Z,28.58
2022-09-26T01:03:34.145Z,26.83
2022-09-26T01:06:22.049Z,25.98
2022-09-26T01:09:20.091Z,28.42
2022-09-26T01:11:54.033Z,27.13
2022-09-26T01:14:42.069Z,27.25
2022-09-26T01:17:16.578Z,30.80
2022-09-26T01:20:04.051Z,30.75
2022-09-26T01:23:08.080Z,28.60
2022-09-26T01:26:26.072Z,33.20
2022-09-26T01:29:32.074Z,28.40
2022-09-26T01:32:44.056Z,30.27
2022-09-26T01:35:50.079Z,26.40
2022-09-26T01:38:35.200Z,36.00
2022-09-26T01:41:37.073Z,23.63
2022-09-26T01:44:31.068Z,27.95
2022-09-26T01:47:48.035Z,30.08
2022-09-26T01:50:46.080Z,28.35
2022-09-26T01:53:31.055Z,30.33
2022-09-26T01:56:30.048Z,27.88
2022-09-26T01:59:25.072Z,29.90
2022-09-26T02:02:08.140Z,30.23
2022-09-26T02:04:57.167Z,26.25
2022-09-26T02:07:45.149Z,27.73
2022-09-26T02:10:35.067Z,26.90
2022-09-26T02:13:14.121Z,26.42
2022-09-26T02:16:05.138Z,25.08
2022-09-26T02:18:49.057Z,25.27
2022-09-26T02:21:43.076Z,29.58
2022-09-26T02:27:11.139Z,23.75
2022-09-26T02:29:52.086Z,24.30
2022-09-26T02:32:35.394Z,24.08
2022-09-26T02:35:34.085Z,23.98
2022-09-26T02:38:24.054Z,25.58
2022-09-26T02:41:29.126Z,21.38
2022-09-26T02:44:20.093Z,24.25
2022-09-26T02:47:10.074Z,20.98
2022-09-26T02:50:39.071Z,26.73
2022-09-26T02:53:25.063Z,25.25
2022-09-26T02:56:23.068Z,24.80
2022-09-26T02:59:10.091Z,28.40
2022-09-26T03:02:17.100Z,25.38
2022-09-26T03:05:14.143Z,27.90
2022-09-26T03:08:01.086Z,22.75
2022-09-26T03:10:49.087Z,25.85
2022-09-26T03:13:25.226Z,18.15
2022-09-26T03:16:13.119Z,23.40
2022-09-26T03:18:51.344Z,20.52
2022-09-26T03:21:39.115Z,26.33
2022-09-26T03:24:13.159Z,26.17
2022-09-26T03:27:01.085Z,26.98
2022-09-26T03:29:42.078Z,23.83
2022-09-26T03:32:30.078Z,29.33
2022-09-26T03:35:04.183Z,26.52
2022-09-26T03:37:51.081Z,28.42
2022-09-26T03:40:25.501Z,26.52
2022-09-26T03:43:12.093Z,26.23
2022-09-26T03:45:53.137Z,27.05
2022-09-26T03:48:47.108Z,24.98
2022-09-26T03:51:34.068Z,29.48
2022-09-26T03:54:15.093Z,29.17
2022-09-26T03:57:09.095Z,27.98
2022-09-26T04:02:37.213Z,26.98
2022-09-26T04:05:24.120Z,27.55
2022-09-26T04:07:58.176Z,24.65
2022-09-26T04:10:46.113Z,26.50
2022-09-26T04:13:49.463Z,30.02
2022-09-26T04:16:29.136Z,31.90
2022-09-26T04:19:04.190Z,29.25
2022-09-26T04:21:52.086Z,26.80
2022-09-26T04:24:26.153Z,29.23
2022-09-26T04:27:15.101Z,33.85
2022-09-26T04:29:56.114Z,28.88
2022-09-26T04:32:50.109Z,32.10
2022-09-26T04:35:37.091Z,30.05
2022-09-26T04:38:18.105Z,31.67
2022-09-26T04:41:10.150Z,30.55
2022-09-26T04:43:51.097Z,33.72
2022-09-26T04:46:45.101Z,32.78
2022-09-26T04:51:59.109Z,36.60
2022-09-26T04:54:47.098Z,30.20
2022-09-26T04:57:27.122Z,32.13
2022-09-26T05:00:08.187Z,30.17
2022-09-26T05:02:49.108Z,32.88
2022-09-26T05:05:31.321Z,32.25
2022-09-26T05:08:12.100Z,34.22
2022-09-26T05:11:03.293Z,39.85
2022-09-26T05:13:45.162Z,36.60
2022-09-26T05:16:28.153Z,33.28
2022-09-26T05:19:08.113Z,34.88
2022-09-26T05:21:56.121Z,38.65
2022-09-26T05:25:09.100Z,31.95
2022-09-26T05:27:57.116Z,31.00
2022-09-26T05:30:32.280Z,33.03
2022-09-26T05:33:20.145Z,32.90
2022-09-26T05:36:05.155Z,31.38
2022-09-26T05:38:59.101Z,33.10
2022-09-26T05:41:46.132Z,30.70
2022-09-26T05:44:27.124Z,25.73
2022-09-26T05:47:22.094Z,30.63
2022-09-26T05:50:16.233Z,29.55
2022-09-26T05:52:57.109Z,29.95
2022-09-26T05:55:51.130Z,32.55
2022-09-26T05:58:41.108Z,27.42
2022-09-26T06:01:22.640Z,30.15
2022-09-26T06:04:04.139Z,26.63
2022-09-26T06:06:52.113Z,25.95
2022-09-26T06:09:26.177Z,27.38
2022-09-26T06:12:15.126Z,28.67
2022-09-26T06:14:56.135Z,25.45
2022-09-26T06:17:44.131Z,26.95
2022-09-26T06:20:18.079Z,25.08
2022-09-26T06:23:06.139Z,29.95
2022-09-26T06:25:40.063Z,27.83
2022-09-26T06:28:28.124Z,32.38
2022-09-26T06:31:23.220Z,35.83
2022-09-26T06:34:05.445Z,26.85
2022-09-26T06:36:47.164Z,27.48
2022-09-26T06:39:42.118Z,30.20
2022-09-26T06:42:22.156Z,30.35
2022-09-26T06:45:03.203Z,32.30
2022-09-26T06:47:44.110Z,29.13
2022-09-26T06:50:25.203Z,28.42
2022-09-26T06:53:10.152Z,27.63
2022-09-26T06:55:58.148Z,28.50
2022-09-26T06:58:32.252Z,29.10
2022-09-26T07:01:21.260Z,31.58
2022-09-26T07:04:01.117Z,33.07
2022-09-26T07:06:42.191Z,41.67
2022-09-26T07:09:23.184Z,35.65
2022-09-26T07:12:15.079Z,46.70
2022-09-26T07:14:58.167Z,26.92
2022-09-26T07:17:39.247Z,28.42
2022-09-26T07:20:22.127Z,30.75
2022-09-26T07:23:10.188Z,32.22
2022-09-26T07:26:04.102Z,26.67
2022-09-26T07:28:54.776Z,23.08
2022-09-26T07:31:36.159Z,25.70
2022-09-26T07:34:31.138Z,23.40
2022-09-26T07:37:19.137Z,23.88
2022-09-26T07:40:01.860Z,24.83
2022-09-26T07:43:04.251Z,23.73
2022-09-26T07:46:01.820Z,24.40
2022-09-26T07:49:07.135Z,23.70
2022-09-26T07:51:41.511Z,26.52
2022-09-26T07:54:29.140Z,28.02
2022-09-26T07:57:11.131Z,23.30
2022-09-26T08:00:05.156Z,25.60
2022-09-26T08:02:53.217Z,27.40
2022-09-26T08:05:27.216Z,22.85
2022-09-26T08:08:14.147Z,26.00
2022-09-26T08:10:50.217Z,23.00
2022-09-26T08:13:38.151Z,30.33
2022-09-26T08:16:28.235Z,24.00
2022-09-26T08:19:18.155Z,25.67
2022-09-26T08:24:39.136Z,24.55
2022-09-26T08:27:14.219Z,24.05
2022-09-26T08:30:03.158Z,22.10
2022-09-26T08:32:44.828Z,22.58
2022-09-26T08:35:25.167Z,20.58
2022-09-26T08:38:10.239Z,26.25
2022-09-26T08:41:03.265Z,25.58
2022-09-26T08:43:51.131Z,22.33
2022-09-26T08:46:50.594Z,22.13
2022-09-26T08:49:38.123Z,19.63
2022-09-26T08:52:23.540Z,24.13
2022-09-26T08:55:13.170Z,21.98
2022-09-26T08:57:56.168Z,22.67
2022-09-26T09:00:43.224Z,18.92
2022-09-26T09:03:35.145Z,24.83
2022-09-26T09:06:18.227Z,22.65
2022-09-26T09:09:02.156Z,20.52
2022-09-26T09:11:52.249Z,22.83
2022-09-26T09:15:13.831Z,18.77
2022-09-26T09:18:13.642Z,18.33
2022-09-26T09:21:18.173Z,22.80
2022-09-26T09:24:18.199Z,18.00
2022-09-26T09:32:57.264Z,17.23
2022-09-26T09:35:44.237Z,21.20
2022-09-26T09:38:35.181Z,18.25
2022-09-26T09:41:28.179Z,17.85
2022-09-26T09:44:12.246Z,19.50
2022-09-26T09:46:53.275Z,15.55
2022-09-26T09:49:34.150Z,18.23
2022-09-26T09:52:47.171Z,14.55
2022-09-26T09:55:36.156Z,16.75
2022-09-26T09:58:35.229Z,16.45
2022-09-26T10:01:21.145Z,14.50
2022-09-26T10:04:44.165Z,18.30
2022-09-26T10:07:18.177Z,16.13
2022-09-26T10:10:06.168Z,12.13
2022-09-26T10:12:49.155Z,15.57
2022-09-26T10:15:38.192Z,12.52
2022-09-26T10:18:26.002Z,12.25
2022-09-26T10:21:18.222Z,10.95
2022-09-26T10:23:59.160Z,10.68
2022-09-26T10:26:40.303Z,10.90
2022-09-26T10:29:47.175Z,10.18
2022-09-26T10:32:35.161Z,9.63
2022-09-26T10:35:24.027Z,9.07
2022-09-26T10:38:34.170Z,8.98
2022-09-26T10:41:31.180Z,7.25
2022-09-26T10:44:07.919Z,8.45
2022-09-26T10:46:56.265Z,10.88
2022-09-26T10:49:36.314Z,9.93
2022-09-26T10:52:30.178Z,9.02
2022-09-26T10:55:11.191Z,9.23
2022-09-26T10:58:00.188Z,8.00
2022-09-26T11:00:52.965Z,7.63
2022-09-26T11:03:57.255Z,6.88
2022-09-26T11:06:56.158Z,10.02
2022-09-26T11:09:52.187Z,11.70
2022-09-26T11:12:46.171Z,6.22
2022-09-26T11:15:22.412Z,9.90
2022-09-26T11:18:12.199Z,5.30
2022-09-26T11:20:58.271Z,7.13
2022-09-26T11:23:51.186Z,4.95
2022-09-26T11:26:54.233Z,4.00
2022-09-26T11:29:53.196Z,7.47
2022-09-26T11:32:45.243Z,6.28
2022-09-26T11:35:36.220Z,6.50
2022-09-26T11:38:29.241Z,7.88
2022-09-26T11:41:21.201Z,7.57
2022-09-26T11:44:15.278Z,6.93
2022-09-26T11:47:06.052Z,6.10
2022-09-26T11:49:57.188Z,7.65
2022-09-26T11:52:49.810Z,10.50
2022-09-26T11:55:39.212Z,6.85
2022-09-26T12:01:10.208Z,5.72
2022-09-26T12:04:12.208Z,4.82
2022-09-26T12:07:09.222Z,8.10
2022-09-26T12:09:49.303Z,6.85
2022-09-26T12:12:49.168Z,7.35
2022-09-26T12:18:14.205Z,6.40
2022-09-26T12:21:01.284Z,8.18
2022-09-26T12:23:45.193Z,9.63
2022-09-26T12:26:41.205Z,6.43
2022-09-26T12:29:21.059Z,7.18
2022-09-26T12:32:27.194Z,6.95
2022-09-26T12:35:01.161Z,10.23
2022-09-26T12:38:08.190Z,6.85
2022-09-26T12:40:48.624Z,8.40
2022-09-26T12:43:48.188Z,6.60
2022-09-26T12:46:31.569Z,7.43
2022-09-26T12:49:38.204Z,7.00
2022-09-26T12:52:12.108Z,8.32
2022-09-26T12:55:03.218Z,7.22
2022-09-26T12:57:44.757Z,8.90
2022-09-26T13:00:35.215Z,6.95
2022-09-26T13:03:15.439Z,6.60
2022-09-26T13:06:08.739Z,7.20
2022-09-26T13:08:58.488Z,7.43
2022-09-26T13:11:54.216Z,5.93
2022-09-26T13:14:38.521Z,6.07
2022-09-26T13:17:49.214Z,7.40
2022-09-26T13:20:33.812Z,6.43
2022-09-26T13:23:34.218Z,10.65
2022-09-26T13:26:19.694Z,12.25
2022-09-26T13:29:18.265Z,7.65
2022-09-26T13:32:14.214Z,6.78
2022-09-26T13:34:59.558Z,6.57
2022-09-26T13:37:45.223Z,8.95
2022-09-26T13:40:36.374Z,6.43
2022-09-26T13:43:37.197Z,7.47
2022-09-26T13:46:59.539Z,6.90
2022-09-26T13:49:46.219Z,5.57
2022-09-26T13:52:34.160Z,6.80
2022-09-26T13:55:22.206Z,6.97
2022-09-26T13:58:03.973Z,5.15
2022-09-26T14:00:47.241Z,5.03
2022-09-26T14:03:29.614Z,6.32
2022-09-26T14:06:24.234Z,7.20
2022-09-26T14:09:31.215Z,6.18
2022-09-26T14:12:20.076Z,6.53
2022-09-26T14:15:22.223Z,6.82
2022-09-26T14:18:02.745Z,9.07
2022-09-26T14:21:00.230Z,10.48
2022-09-26T14:23:35.857Z,6.95
2022-09-26T14:26:34.228Z,8.82
2022-09-26T14:29:44.219Z,6.78
2022-09-26T14:32:37.239Z,7.55
2022-09-26T14:35:31.593Z,6.28
2022-09-26T14:38:25.268Z,7.63
2022-09-26T14:41:02.431Z,7.43
2022-09-26T14:43:50.250Z,9.57
2022-09-26T14:46:25.369Z,7.28
2022-09-26T14:49:14.248Z,6.18
2022-09-26T14:51:49.347Z,6.07
2022-09-26T14:54:44.236Z,8.02
2022-09-26T14:57:39.268Z,6.95
2022-09-26T15:00:57.254Z,7.82
2022-09-26T15:03:45.259Z,8.82
2022-09-26T15:06:19.340Z,10.55
2022-09-26T15:09:15.271Z,13.50
2022-09-26T15:11:51.370Z,9.60
2022-09-26T15:14:43.219Z,10.95
2022-09-26T15:17:46.272Z,10.90
2022-09-26T15:20:43.232Z,10.98
2022-09-26T15:23:35.252Z,10.23
2022-09-26T15:26:09.332Z,11.35
2022-09-26T15:28:58.293Z,19.58
2022-09-26T15:31:49.340Z,12.63
2022-09-26T15:34:41.301Z,17.02
2022-09-26T15:37:24.520Z,11.35
2022-09-26T15:40:17.318Z,16.83
2022-09-26T15:43:09.532Z,14.45
2022-09-26T15:45:52.299Z,15.05
2022-09-26T15:48:41.318Z,17.80
2022-09-26T15:51:25.247Z,15.35
2022-09-26T15:54:22.576Z,24.23
2022-09-26T15:57:01.788Z,15.55
2022-09-26T15:59:54.274Z,12.30
2022-09-26T16:02:32.775Z,22.58
2022-09-26T16:05:22.258Z,25.67
2022-09-26T16:10:40.262Z,33.67
2022-09-26T16:13:25.465Z,24.05
2022-09-26T16:16:19.351Z,19.05
2022-09-26T16:19:05.514Z,93.00
2022-09-26T16:21:53.280Z,52.53
2022-09-26T16:24:40.347Z,57.85
2022-09-26T16:27:32.465Z,42.97
2022-09-26T16:30:13.270Z,22.25
2022-09-26T16:33:20.274Z,16.27
2022-09-26T16:36:27.277Z,14.43
2022-09-26T16:39:11.451Z,10.93
2022-09-26T16:42:03.769Z,12.90
2022-09-26T16:44:49.379Z,13.23
2022-09-26T16:47:36.314Z,8.57
2022-09-26T16:50:37.161Z,7.43
2022-09-26T16:53:19.281Z,8.82
2022-09-26T16:56:00.319Z,6.40
2022-09-26T16:58:41.352Z,7.00
2022-09-26T17:01:40.339Z,8.45
2022-09-26T17:04:30.268Z,12.05
2022-09-26T17:07:09.547Z,15.73
2022-09-26T17:09:57.362Z,14.70
2022-09-26T17:12:31.357Z,15.57
2022-09-26T17:15:20.275Z,23.80
2022-09-26T17:17:54.879Z,20.27
2022-09-26T17:20:42.307Z,18.13
2022-09-26T17:23:38.570Z,21.17
2022-09-26T17:26:30.321Z,28.47
2022-09-26T17:29:04.518Z,21.48
2022-09-26T17:31:52.273Z,18.77
2022-09-26T17:34:35.293Z,25.77
2022-09-26T17:37:16.553Z,53.78
2022-09-26T17:39:57.302Z,39.75
2022-09-26T17:42:45.367Z,45.72
2022-09-26T17:45:20.246Z,29.02
2022-09-26T17:48:11.292Z,35.55
2022-09-26T17:50:46.857Z,81.78
2022-09-26T17:53:36.622Z,35.85
2022-09-26T17:56:10.768Z,43.80
2022-09-26T17:58:58.356Z,51.50
2022-09-26T18:01:40.380Z,30.38
2022-09-26T18:04:21.383Z,27.73
2022-09-26T18:07:08.429Z,24.38
2022-09-26T18:09:56.312Z,24.02
2022-09-26T18:12:37.319Z,52.45
2022-09-26T18:15:21.586Z,45.80
2022-09-26T18:18:02.341Z,40.90
2022-09-26T18:20:45.715Z,47.55
2022-09-26T18:23:30.311Z,56.58
2022-09-26T18:26:11.490Z,114.43
2022-09-26T18:28:52.308Z,140.63
2022-09-26T18:31:35.457Z,299.05
2022-09-26T18:34:27.297Z,74.82
2022-09-26T18:37:08.405Z,36.78
2022-09-26T18:39:54.372Z,22.65
2022-09-26T18:45:19.354Z,19.95
2022-09-26T18:48:02.227Z,18.23
2022-09-26T18:50:44.330Z,15.63
2022-09-26T18:53:29.437Z,18.20
2022-09-26T18:56:28.347Z,22.10
2022-09-26T18:59:10.340Z,24.45
2022-09-26T19:01:51.467Z,26.27
2022-09-26T19:04:33.209Z,27.25
2022-09-26T19:07:18.677Z,26.02
2022-09-26T19:10:01.435Z,25.85
2022-09-26T19:12:45.316Z,23.98
2022-09-26T19:15:27.826Z,41.72
2022-09-26T19:18:09.330Z,29.23
2022-09-26T19:20:50.399Z,22.25
2022-09-26T19:23:41.362Z,24.23
2022-09-26T19:26:19.412Z,15.95
2022-09-26T19:29:11.310Z,24.52
2022-09-26T19:31:47.701Z,18.02
2022-09-26T19:34:35.359Z,17.70
2022-09-26T19:37:17.483Z,16.42
2022-09-26T19:39:57.325Z,20.63
2022-09-26T19:42:38.531Z,16.40
2022-09-26T19:45:19.369Z,19.67
2022-09-26T19:48:01.423Z,16.25
2022-09-26T19:50:44.384Z,27.15
2022-09-26T19:53:31.987Z,23.60
2022-09-26T19:56:13.367Z,25.17
2022-09-26T19:58:54.490Z,19.27
2022-09-26T20:01:41.365Z,15.10
2022-09-26T20:04:36.339Z,18.25
2022-09-26T20:07:25.357Z,15.77
2022-09-26T20:09:59.417Z,22.80
2022-09-26T20:12:46.336Z,33.70
2022-09-26T20:15:21.457Z,26.70
2022-09-26T20:18:09.338Z,30.77
2022-09-26T20:20:43.408Z,25.45
2022-09-26T20:23:32.345Z,24.25
2022-09-26T20:26:06.526Z,43.40
2022-09-26T20:28:53.337Z,26.52
2022-09-26T20:31:28.487Z,29.92
2022-09-26T20:34:17.329Z,27.55
2022-09-26T20:37:06.349Z,26.92
2022-09-26T20:40:01.308Z,28.83
2022-09-26T20:42:51.345Z,23.27
2022-09-26T20:45:26.432Z,22.85
2022-09-26T20:48:25.370Z,26.00
2022-09-26T20:50:59.423Z,25.58
2022-09-26T20:53:47.327Z,29.90
2022-09-26T20:56:21.549Z,29.92
2022-09-26T20:59:08.339Z,27.25
2022-09-26T21:01:42.516Z,31.17
2022-09-26T21:04:37.353Z,27.85
2022-09-26T21:07:11.502Z,25.73
2022-09-26T21:09:59.363Z,43.65
2022-09-26T21:12:33.408Z,25.85
2022-09-26T21:15:21.345Z,15.23
2022-09-26T21:17:56.478Z,82.90
2022-09-26T21:20:44.356Z,20.63
2022-09-26T21:23:26.422Z,14.05
2022-09-26T21:26:06.331Z,34.53
2022-09-26T21:28:47.420Z,61.20
2022-09-26T21:31:37.319Z,28.48
2022-09-26T21:34:23.368Z,53.63
2022-09-26T21:37:17.329Z,35.55
2022-09-26T21:42:38.507Z,28.38
2022-09-26T21:45:27.532Z,30.00
2022-09-26T21:48:03.464Z,24.52
2022-09-26T21:50:57.846Z,10.30
2022-09-26T21:53:40.496Z,10.75
2022-09-26T21:56:31.371Z,16.98
2022-09-26T21:59:12.410Z,11.48
2022-09-26T22:02:06.402Z,15.40
2022-09-26T22:04:54.343Z,14.27
2022-09-26T22:07:28.464Z,20.40
2022-09-26T22:10:16.352Z,22.00
2022-09-26T22:12:50.452Z,22.50
2022-09-26T22:15:37.362Z,20.02
2022-09-26T22:18:11.425Z,18.58
2022-09-26T22:21:02.380Z,21.30
2022-09-26T22:23:43.362Z,20.48
2022-09-26T22:26:37.343Z,20.05
2022-09-26T22:32:06.229Z,16.15
2022-09-26T22:34:46.365Z,16.35
2022-09-26T22:37:27.451Z,20.10
2022-09-26T22:40:08.370Z,24.88
2022-09-26T22:42:49.544Z,31.52
2022-09-26T22:45:30.359Z,31.95
2022-09-26T22:48:18.356Z,57.08
2022-09-26T22:50:53.100Z,21.92
2022-09-26T22:53:40.356Z,14.95
2022-09-26T22:56:15.231Z,16.15
2022-09-26T22:59:05.374Z,19.50
2022-09-26T23:01:45.429Z,59.75
2022-09-26T23:04:53.425Z,63.60
2022-09-26T23:07:27.367Z,29.00
2022-09-26T23:10:15.366Z,23.02
2022-09-26T23:12:50.662Z,21.20
2022-09-26T23:15:38.374Z,130.70
2022-09-26T23:18:14.124Z,65.47
2022-09-26T23:21:01.361Z,33.13
2022-09-26T23:23:35.387Z,55.08
2022-09-26T23:26:28.371Z,61.85
2022-09-26T23:29:02.341Z,53.70
2022-09-26T23:31:50.372Z,23.42
2022-09-26T23:34:31.370Z,17.38
2022-09-26T23:37:12.471Z,13.45
2022-09-26T23:39:53.387Z,11.45
2022-09-26T23:42:34.455Z,13.95
2022-09-26T23:45:15.400Z,12.70
2022-09-26T23:48:03.379Z,14.88
2022-09-26T23:50:37.547Z,14.45
2022-09-26T23:53:25.391Z,14.57
2022-09-26T23:56:03.926Z,17.75
2022-09-26T23:58:51.396Z,17.80
